createdAt,value
2022-10-02T00:02:32.510Z,99989.50
2022-10-02T00:05:15.376Z,99980.44
2022-10-02T00:08:04.944Z,100002.00
2022-10-02T00:10:50.114Z,99984.97
2022-10-02T00:13:46.004Z,99981.84
2022-10-02T00:16:26.192Z,99986.72
2022-10-02T00:18:54.596Z,99981.56
2022-10-02T00:21:58.824Z,99991.22
2022-10-02T00:24:33.517Z,99979.28
2022-10-02T00:27:15.259Z,99934.63
2022-10-02T00:29:52.433Z,100004.69
2022-10-02T00:32:31.196Z,99975.09
2022-10-02T00:34:57.739Z,100021.88
2022-10-02T00:37:48.471Z,100009.66
2022-10-02T00:40:35.976Z,100015.56
2022-10-02T00:43:12.531Z,99874.00
2022-10-02T00:45:47.908Z,100016.19
2022-10-02T00:48:20.384Z,100014.34
2022-10-02T00:50:57.744Z,100016.00
2022-10-02T00:53:41.386Z,99956.38
2022-10-02T00:56:37.443Z,100026.47
2022-10-02T00:59:29.868Z,100026.91
2022-10-02T01:02:14.298Z,100035.53
2022-10-02T01:04:41.525Z,100012.16
2022-10-02T01:07:11.270Z,100025.94
2022-10-02T01:09:39.832Z,100023.50
2022-10-02T01:12:07.113Z,100019.38
2022-10-02T01:14:34.273Z,100023.53
2022-10-02T01:17:02.382Z,100008.72
2022-10-02T01:19:39.048Z,100026.59
2022-10-02T01:22:24.155Z,100028.38
2022-10-02T01:24:58.890Z,100010.72
2022-10-02T01:27:26.781Z,100037.81
2022-10-02T01:30:01.062Z,100024.50
2022-10-02T01:32:31.638Z,100016.13
2022-10-02T01:35:00.607Z,99934.41
2022-10-02T01:37:31.661Z,99934.16
2022-10-02T01:40:06.694Z,99994.13
2022-10-02T01:42:34.139Z,99958.41
2022-10-02T01:45:01.586Z,99937.06
2022-10-02T01:47:36.666Z,100019.66
2022-10-02T01:50:12.402Z,100017.63
2022-10-02T01:52:49.671Z,100019.28
2022-10-02T01:55:18.983Z,100015.34
2022-10-02T01:57:45.504Z,100021.50
2022-10-02T02:00:24.977Z,100031.97
2022-10-02T02:03:06.492Z,100031.16
2022-10-02T02:05:56.106Z,100011.88
2022-10-02T02:08:31.595Z,100017.63
2022-10-02T02:11:07.362Z,100025.19
2022-10-02T02:13:54.744Z,100031.53
2022-10-02T02:16:27.642Z,100029.06
2022-10-02T02:19:02.912Z,100034.19
2022-10-02T02:21:33.182Z,100037.50
2022-10-02T02:24:03.784Z,100031.19
2022-10-02T02:26:30.898Z,99999.31
2022-10-02T02:29:03.142Z,100032.00
2022-10-02T02:31:38.012Z,99986.00
2022-10-02T02:34:11.656Z,100035.69
2022-10-02T02:36:44.917Z,100035.25
2022-10-02T02:39:19.121Z,100043.06
2022-10-02T02:41:55.733Z,100024.94
2022-10-02T02:44:28.066Z,100023.31
2022-10-02T02:47:12.674Z,99928.63
2022-10-02T02:50:02.192Z,100031.94
2022-10-02T02:52:45.157Z,100000.47
2022-10-02T02:55:22.611Z,100026.97
2022-10-02T02:57:55.321Z,100032.31
2022-10-02T03:00:23.805Z,99973.78
2022-10-02T03:02:54.382Z,99985.06
2022-10-02T03:05:24.211Z,99958.19
2022-10-02T03:07:54.723Z,100036.84
2022-10-02T03:10:35.379Z,100002.75
2022-10-02T03:13:21.684Z,100034.97
2022-10-02T03:15:56.820Z,100000.47
2022-10-02T03:18:32.347Z,100016.75
2022-10-02T03:21:13.963Z,100022.97
2022-10-02T03:23:51.027Z,99982.69
2022-10-02T03:26:44.586Z,99995.03
2022-10-02T03:29:20.827Z,99970.78
2022-10-02T03:31:49.412Z,100011.63
2022-10-02T03:34:17.297Z,100028.97
2022-10-02T03:36:45.878Z,100014.38
2022-10-02T03:39:24.857Z,100024.59
2022-10-02T03:41:53.246Z,100003.00
2022-10-02T03:44:20.141Z,100007.91
2022-10-02T03:46:46.887Z,100005.66
2022-10-02T03:49:13.554Z,100038.53
2022-10-02T03:51:40.280Z,100045.91
2022-10-02T03:54:15.595Z,99908.47
2022-10-02T03:56:48.148Z,100047.31
2022-10-02T03:59:27.887Z,100037.44
2022-10-02T04:01:55.485Z,100044.03
2022-10-02T04:04:41.976Z,100001.94
2022-10-02T04:07:17.333Z,100030.31
2022-10-02T04:09:50.407Z,99973.44
2022-10-02T04:12:25.075Z,100029.50
2022-10-02T04:14:58.937Z,100024.78
2022-10-02T04:17:37.161Z,100034.41
2022-10-02T04:20:12.858Z,100002.34
2022-10-02T04:22:57.395Z,100032.78
2022-10-02T04:25:29.606Z,99995.63
2022-10-02T04:28:05.288Z,100017.56
2022-10-02T04:30:32.103Z,100038.94
2022-10-02T04:33:10.776Z,100052.41
2022-10-02T04:36:10.924Z,100053.28
2022-10-02T04:38:52.529Z,100047.94
2022-10-02T04:41:34.091Z,100059.19
2022-10-02T04:44:19.192Z,100059.00
2022-10-02T04:47:24.030Z,100065.34
2022-10-02T04:50:03.845Z,100042.69
2022-10-02T04:53:12.479Z,100046.19
2022-10-02T04:55:56.537Z,100054.75
2022-10-02T04:58:41.273Z,100038.31
2022-10-02T05:01:33.980Z,100056.38
2022-10-02T05:04:19.476Z,100055.38
2022-10-02T05:07:14.190Z,100058.06
2022-10-02T05:10:13.745Z,100049.78
2022-10-02T05:13:45.118Z,100055.25
2022-10-02T05:16:20.845Z,100048.06
2022-10-02T05:19:12.491Z,100056.66
2022-10-02T05:22:08.385Z,100040.03
2022-10-02T05:24:54.863Z,100036.69
2022-10-02T05:27:51.974Z,100054.56
2022-10-02T05:30:19.373Z,100046.47
2022-10-02T05:33:16.468Z,100064.19
2022-10-02T05:35:56.136Z,100061.72
2022-10-02T05:38:57.330Z,100058.44
2022-10-02T05:41:33.260Z,100048.75
2022-10-02T05:44:16.990Z,100069.31
2022-10-02T05:46:56.412Z,100054.75
2022-10-02T05:49:34.425Z,100033.34
2022-10-02T05:52:11.740Z,100055.19
2022-10-02T05:54:52.797Z,100063.56
2022-10-02T05:57:36.577Z,100066.03
2022-10-02T06:00:24.704Z,100056.19
2022-10-02T06:03:09.109Z,100061.28
2022-10-02T06:05:43.346Z,100065.78
2022-10-02T06:08:15.277Z,100073.06
2022-10-02T06:10:50.668Z,100013.63
2022-10-02T06:13:25.763Z,100062.47
2022-10-02T06:16:12.059Z,100069.91
2022-10-02T06:18:43.637Z,100035.38
2022-10-02T06:21:25.069Z,99982.31
2022-10-02T06:23:56.002Z,100048.91
2022-10-02T06:26:51.009Z,100068.25
2022-10-02T06:29:29.253Z,100071.28
2022-10-02T06:32:19.233Z,100036.31
2022-10-02T06:34:48.161Z,100018.00
2022-10-02T06:37:27.827Z,100017.34
2022-10-02T06:40:09.564Z,100066.06
2022-10-02T06:43:01.595Z,100014.06
2022-10-02T06:45:50.118Z,100058.25
2022-10-02T06:48:49.265Z,100058.44
2022-10-02T06:51:20.921Z,100047.84
2022-10-02T06:53:59.391Z,100046.69
2022-10-02T06:57:01.468Z,100037.22
2022-10-02T06:59:46.331Z,100048.94
2022-10-02T07:02:48.376Z,100037.00
2022-10-02T07:05:24.368Z,100053.66
2022-10-02T07:08:23.061Z,100061.94
2022-10-02T07:11:22.111Z,100058.44
2022-10-02T07:14:22.248Z,100066.38
2022-10-02T07:17:07.280Z,100045.03
2022-10-02T07:20:00.644Z,100027.09
2022-10-02T07:22:45.168Z,100033.50
2022-10-02T07:25:30.445Z,100047.19
2022-10-02T07:28:16.065Z,100045.81
2022-10-02T07:31:06.608Z,100058.22
2022-10-02T07:33:52.068Z,100059.44
2022-10-02T07:36:24.449Z,100045.94
2022-10-02T07:39:08.535Z,100040.03
2022-10-02T07:41:52.101Z,100011.75
2022-10-02T07:44:30.599Z,100011.44
2022-10-02T07:47:09.506Z,100024.94
2022-10-02T07:49:45.107Z,100030.78
2022-10-02T07:52:36.468Z,99998.75
2022-10-02T07:55:23.244Z,100009.72
2022-10-02T07:58:12.455Z,100003.81
2022-10-02T08:00:48.477Z,99998.44
2022-10-02T08:03:20.171Z,99935.81
2022-10-02T08:05:49.212Z,100021.06
2022-10-02T08:08:53.424Z,100030.06
2022-10-02T08:11:28.682Z,100040.50
2022-10-02T08:14:11.374Z,100017.13
2022-10-02T08:16:46.141Z,100014.97
2022-10-02T08:19:16.703Z,100030.09
2022-10-02T08:21:49.014Z,100031.88
2022-10-02T08:24:30.654Z,100038.47
2022-10-02T08:27:20.194Z,99990.19
2022-10-02T08:29:53.603Z,100044.59
2022-10-02T08:32:22.537Z,100061.16
2022-10-02T08:34:49.497Z,100083.84
2022-10-02T08:37:37.127Z,100066.16
2022-10-02T08:40:47.147Z,100058.66
2022-10-02T08:43:41.047Z,100046.22
2022-10-02T08:46:46.262Z,100039.91
2022-10-02T08:49:52.580Z,100036.91
2022-10-02T08:52:25.045Z,100037.09
2022-10-02T08:55:10.728Z,100026.25
2022-10-02T08:58:10.926Z,100004.72
2022-10-02T09:00:55.641Z,100028.34
2022-10-02T09:03:46.997Z,100022.75
2022-10-02T09:06:16.570Z,100034.63
2022-10-02T09:09:22.200Z,100033.94
2022-10-02T09:12:21.473Z,100038.06
2022-10-02T09:14:52.058Z,100020.44
2022-10-02T09:17:35.422Z,100009.19
2022-10-02T09:20:04.948Z,100021.34
2022-10-02T09:22:53.272Z,100026.06
2022-10-02T09:25:22.748Z,100019.31
2022-10-02T09:28:23.452Z,100020.53
2022-10-02T09:30:57.532Z,100003.72
2022-10-02T09:33:39.370Z,100020.34
2022-10-02T09:36:41.167Z,100022.75
2022-10-02T09:39:25.060Z,99945.50
2022-10-02T09:42:14.855Z,100013.72
2022-10-02T09:45:01.495Z,100035.41
2022-10-02T09:47:50.324Z,100042.59
2022-10-02T09:50:54.571Z,100050.38
2022-10-02T09:53:33.403Z,100047.94
2022-10-02T09:56:18.891Z,100037.94
2022-10-02T09:58:48.249Z,100038.31
2022-10-02T10:01:18.071Z,100018.22
2022-10-02T10:04:08.272Z,100020.06
2022-10-02T10:07:22.888Z,100008.38
2022-10-02T10:10:14.544Z,100007.19
2022-10-02T10:12:49.413Z,100013.56
2022-10-02T10:15:57.414Z,100012.28
2022-10-02T10:18:34.126Z,100007.97
2022-10-02T10:21:06.930Z,100012.94
2022-10-02T10:23:54.258Z,99995.88
2022-10-02T10:26:38.983Z,100019.13
2022-10-02T10:29:45.247Z,100024.22
2022-10-02T10:32:38.637Z,100029.31
2022-10-02T10:35:25.728Z,100030.53
2022-10-02T10:38:16.973Z,100044.03
2022-10-02T10:41:15.739Z,100052.03
2022-10-02T10:44:21.884Z,100054.50
2022-10-02T10:46:59.348Z,100051.00
2022-10-02T10:50:00.606Z,100031.03
2022-10-02T10:52:57.682Z,100054.88
2022-10-02T10:55:58.958Z,100053.44
2022-10-02T10:58:44.073Z,100058.41
2022-10-02T11:01:28.705Z,100045.13
2022-10-02T11:04:15.546Z,100032.06
2022-10-02T11:06:50.524Z,100044.41
2022-10-02T11:09:30.928Z,100040.56
2022-10-02T11:12:00.586Z,100031.31
2022-10-02T11:14:33.377Z,100039.72
2022-10-02T11:17:27.318Z,100028.84
2022-10-02T11:19:59.987Z,100033.75
2022-10-02T11:22:26.544Z,100039.72
2022-10-02T11:25:14.896Z,100037.88
2022-10-02T11:28:11.139Z,100043.22
2022-10-02T11:30:46.710Z,100041.97
2022-10-02T11:33:13.266Z,100036.22
2022-10-02T11:36:09.527Z,100029.44
2022-10-02T11:38:51.370Z,100002.94
2022-10-02T11:41:24.858Z,100027.59
2022-10-02T11:44:37.632Z,100028.03
2022-10-02T11:47:29.737Z,100031.94
2022-10-02T11:50:01.143Z,100008.56
2022-10-02T11:52:48.434Z,100007.72
2022-10-02T11:55:30.274Z,100019.22
2022-10-02T11:58:12.174Z,99999.09
2022-10-02T12:01:10.610Z,100035.41
2022-10-02T12:04:19.660Z,100030.06
2022-10-02T12:07:11.773Z,100024.94
2022-10-02T12:09:48.208Z,100038.63
2022-10-02T12:12:37.607Z,100018.53
2022-10-02T12:15:34.213Z,100030.84
2022-10-02T12:18:25.557Z,100032.47
2022-10-02T12:21:37.893Z,99979.28
2022-10-02T12:25:01.408Z,100042.13
2022-10-02T12:28:00.286Z,100058.31
2022-10-02T12:30:39.985Z,100066.31
2022-10-02T12:33:21.838Z,100032.47
2022-10-02T12:36:05.474Z,100074.19
2022-10-02T12:38:53.379Z,100054.44
2022-10-02T12:41:26.021Z,100038.63
2022-10-02T12:43:55.527Z,100033.75
2022-10-02T12:46:46.618Z,100034.22
2022-10-02T12:49:45.594Z,100034.41
2022-10-02T12:52:34.683Z,99995.41
2022-10-02T12:55:07.484Z,100023.94
2022-10-02T12:57:55.917Z,100022.28
2022-10-02T13:00:43.119Z,100011.22
2022-10-02T13:03:46.874Z,100019.81
2022-10-02T13:06:33.855Z,99997.66
2022-10-02T13:09:02.861Z,100039.53
2022-10-02T13:11:59.998Z,99971.94
2022-10-02T13:14:33.131Z,100035.00
2022-10-02T13:17:09.784Z,100036.25
2022-10-02T13:19:39.667Z,100034.81
2022-10-02T13:22:51.193Z,99983.25
2022-10-02T13:25:22.488Z,100005.88
2022-10-02T13:27:51.906Z,100037.28
2022-10-02T13:30:23.893Z,100045.91
2022-10-02T13:33:21.527Z,100046.88
2022-10-02T13:36:13.498Z,100029.81
2022-10-02T13:39:14.251Z,100023.31
2022-10-02T13:41:59.193Z,100024.72
2022-10-02T13:44:33.325Z,100039.66
2022-10-02T13:47:23.754Z,100016.03
2022-10-02T13:50:02.440Z,100001.63
2022-10-02T13:52:38.788Z,100051.34
2022-10-02T13:55:08.276Z,100054.81
2022-10-02T13:58:17.845Z,100061.44
2022-10-02T14:01:08.913Z,100061.59
2022-10-02T14:03:57.240Z,100055.91
2022-10-02T14:06:31.651Z,100085.88
2022-10-02T14:09:10.508Z,100071.06
2022-10-02T14:12:08.896Z,100077.59
2022-10-02T14:14:56.782Z,100073.94
2022-10-02T14:17:49.378Z,100039.47
2022-10-02T14:20:40.870Z,100053.91
2022-10-02T14:23:17.342Z,100047.56
2022-10-02T14:26:18.709Z,100054.28
2022-10-02T14:29:09.991Z,100038.06
2022-10-02T14:32:14.947Z,100044.88
2022-10-02T14:34:50.791Z,100041.56
2022-10-02T14:37:37.941Z,100053.38
2022-10-02T14:40:17.328Z,100054.41
2022-10-02T14:43:05.674Z,100054.59
2022-10-02T14:45:37.991Z,100056.25
2022-10-02T14:48:38.880Z,100059.09
2022-10-02T14:51:30.629Z,100019.28
2022-10-02T14:54:00.401Z,100030.59
2022-10-02T14:56:33.052Z,100033.28
2022-10-02T14:59:14.702Z,100029.53
2022-10-02T15:01:56.661Z,100033.44
2022-10-02T15:04:55.783Z,100028.53
2022-10-02T15:07:26.016Z,100034.47
2022-10-02T15:10:07.683Z,100019.50
2022-10-02T15:12:43.586Z,100028.53
2022-10-02T15:15:26.000Z,100046.34
2022-10-02T15:18:18.182Z,100042.66
2022-10-02T15:21:01.590Z,100032.78
2022-10-02T15:23:41.548Z,100047.78
2022-10-02T15:26:16.834Z,99971.94
2022-10-02T15:29:12.277Z,100006.88
2022-10-02T15:31:48.151Z,100070.97
2022-10-02T15:34:38.339Z,100069.56
2022-10-02T15:37:17.768Z,100058.50
2022-10-02T15:40:08.785Z,100061.75
2022-10-02T15:42:57.534Z,100059.28
2022-10-02T15:46:14.669Z,100040.13
2022-10-02T15:48:56.438Z,100070.09
2022-10-02T15:51:44.679Z,100076.63
2022-10-02T15:54:14.549Z,100078.84
2022-10-02T15:57:09.908Z,100084.75
2022-10-02T15:59:58.239Z,100092.53
2022-10-02T16:02:48.362Z,100095.41
2022-10-02T16:05:34.824Z,100083.00
2022-10-02T16:08:15.640Z,100091.22
2022-10-02T16:11:15.934Z,100104.03
2022-10-02T16:14:00.361Z,100104.81
2022-10-02T16:16:36.483Z,100115.13
2022-10-02T16:19:25.218Z,100115.75
2022-10-02T16:22:16.997Z,100135.38
2022-10-02T16:25:26.078Z,100139.41
2022-10-02T16:28:10.969Z,100141.22
2022-10-02T16:30:49.591Z,100145.31
2022-10-02T16:33:32.604Z,100143.88
2022-10-02T16:36:08.237Z,100157.34
2022-10-02T16:38:49.432Z,100156.91
2022-10-02T16:41:28.186Z,100159.97
2022-10-02T16:44:23.136Z,100161.16
2022-10-02T16:46:58.545Z,100163.38
2022-10-02T16:49:34.065Z,100165.22
2022-10-02T16:52:14.995Z,100118.88
2022-10-02T16:55:00.896Z,100164.84
2022-10-02T16:57:51.489Z,100085.31
2022-10-02T17:00:37.309Z,100150.75
2022-10-02T17:03:08.963Z,100176.13
2022-10-02T17:05:49.275Z,100188.28
2022-10-02T17:08:44.190Z,100171.44
2022-10-02T17:11:16.668Z,100192.94
2022-10-02T17:14:28.799Z,100197.28
2022-10-02T17:17:01.860Z,100100.22
2022-10-02T17:19:34.511Z,100163.34
2022-10-02T17:22:13.685Z,100183.88
2022-10-02T17:24:54.464Z,100171.84
2022-10-02T17:27:30.104Z,100177.63
2022-10-02T17:30:16.313Z,100189.09
2022-10-02T17:32:49.640Z,100182.38
2022-10-02T17:35:39.997Z,100190.78
2022-10-02T17:38:24.165Z,100181.19
2022-10-02T17:41:14.392Z,100186.13
2022-10-02T17:43:58.889Z,100187.53
2022-10-02T17:46:49.689Z,100204.53
2022-10-02T17:49:32.103Z,100202.91
2022-10-02T17:52:40.559Z,100215.66
2022-10-02T17:55:37.999Z,100221.72
2022-10-02T17:58:23.312Z,100223.25
2022-10-02T18:01:05.841Z,100218.34
2022-10-02T18:03:50.249Z,100225.81
2022-10-02T18:06:42.311Z,100239.09
2022-10-02T18:09:24.059Z,100248.97
2022-10-02T18:12:15.671Z,100248.16
2022-10-02T18:15:04.471Z,100239.28
2022-10-02T18:17:53.185Z,100271.22
2022-10-02T18:21:10.082Z,100268.81
2022-10-02T18:23:45.948Z,100265.75
2022-10-02T18:26:49.145Z,100281.31
2022-10-02T18:29:24.685Z,100280.72
2022-10-02T18:32:19.384Z,100284.09
2022-10-02T18:35:09.048Z,100273.69
2022-10-02T18:37:57.347Z,100279.41
2022-10-02T18:40:26.755Z,100246.56
2022-10-02T18:43:04.568Z,100279.66
2022-10-02T18:45:55.916Z,100281.16
2022-10-02T18:48:34.776Z,100275.91
2022-10-02T18:51:26.654Z,100282.38
2022-10-02T18:54:29.689Z,100295.25
2022-10-02T18:57:17.923Z,100296.88
2022-10-02T18:59:54.974Z,100302.41
2022-10-02T19:02:27.886Z,100304.66
2022-10-02T19:05:09.703Z,100307.97
2022-10-02T19:07:42.147Z,100309.97
2022-10-02T19:10:23.164Z,100257.53
2022-10-02T19:12:53.567Z,100314.31
2022-10-02T19:15:27.085Z,100246.44
2022-10-02T19:17:59.136Z,100327.44
2022-10-02T19:20:48.193Z,100327.28
2022-10-02T19:23:41.396Z,100323.59
2022-10-02T19:26:24.223Z,100215.00
2022-10-02T19:29:05.230Z,100341.31
2022-10-02T19:31:39.303Z,100340.47
2022-10-02T19:34:17.753Z,100342.56
2022-10-02T19:36:50.242Z,100351.16
2022-10-02T19:39:31.353Z,100356.91
2022-10-02T19:42:03.145Z,100332.78
2022-10-02T19:44:45.846Z,100362.13
2022-10-02T19:47:27.338Z,100341.66
2022-10-02T19:49:56.909Z,100307.66
2022-10-02T19:52:35.823Z,100369.22
2022-10-02T19:55:17.890Z,100376.06
2022-10-02T19:57:47.882Z,100364.72
2022-10-02T20:00:19.261Z,100385.59
2022-10-02T20:02:49.101Z,100386.47
2022-10-02T20:05:23.757Z,100394.19
2022-10-02T20:07:54.607Z,100399.31
2022-10-02T20:11:00.644Z,100403.47
2022-10-02T20:13:30.554Z,100390.44
2022-10-02T20:16:38.907Z,100405.97
2022-10-02T20:19:07.580Z,100396.75
2022-10-02T20:21:43.078Z,100392.44
2022-10-02T20:24:33.305Z,100351.66
2022-10-02T20:27:11.367Z,100409.72
2022-10-02T20:29:47.099Z,100427.75
2022-10-02T20:32:26.856Z,100370.53
2022-10-02T20:34:59.122Z,100418.78
2022-10-02T20:37:30.053Z,100398.97
2022-10-02T20:40:16.231Z,100434.56
2022-10-02T20:42:58.404Z,100453.41
2022-10-02T20:46:19.945Z,100451.16
2022-10-02T20:49:08.503Z,100463.38
2022-10-02T20:52:04.575Z,100457.22
2022-10-02T20:54:54.072Z,100464.38
2022-10-02T20:58:01.910Z,100469.34
2022-10-02T21:00:49.795Z,100495.56
2022-10-02T21:03:41.870Z,100467.84
2022-10-02T21:06:46.330Z,100478.56
2022-10-02T21:09:37.619Z,100471.75
2022-10-02T21:12:15.897Z,100489.28
2022-10-02T21:15:04.434Z,100491.34
2022-10-02T21:17:43.004Z,100496.28
2022-10-02T21:20:16.702Z,100410.00
2022-10-02T21:23:21.561Z,100479.69
2022-10-02T21:26:33.397Z,100498.31
2022-10-02T21:29:24.103Z,100499.16
2022-10-02T21:31:58.352Z,100511.41
2022-10-02T21:34:41.592Z,100509.97
2022-10-02T21:37:26.845Z,100508.75
2022-10-02T21:40:11.362Z,100517.69
2022-10-02T21:42:58.440Z,100511.81
2022-10-02T21:45:43.559Z,100524.44
2022-10-02T21:48:28.786Z,100525.53
2022-10-02T21:51:11.918Z,100525.88
2022-10-02T21:54:18.040Z,100523.47
2022-10-02T21:57:12.508Z,100529.41
2022-10-02T21:59:45.114Z,100532.34
2022-10-02T22:02:30.541Z,100531.00
2022-10-02T22:05:09.516Z,100523.94
2022-10-02T22:08:12.314Z,100531.19
2022-10-02T22:11:12.132Z,100537.34
2022-10-02T22:13:40.809Z,100535.72
2022-10-02T22:16:26.723Z,100535.47
2022-10-02T22:19:02.687Z,100524.09
2022-10-02T22:21:50.537Z,100528.97
2022-10-02T22:24:54.501Z,100531.91
2022-10-02T22:27:54.535Z,100539.38
2022-10-02T22:30:25.662Z,100543.72
2022-10-02T22:33:10.363Z,100544.22
2022-10-02T22:35:46.242Z,100549.19
2022-10-02T22:38:20.547Z,100544.03
2022-10-02T22:40:54.987Z,100543.63
2022-10-02T22:43:32.137Z,100543.16
2022-10-02T22:46:16.409Z,100530.50
2022-10-02T22:48:58.821Z,100560.31
2022-10-02T22:51:37.937Z,100541.50
2022-10-02T22:54:10.921Z,100567.88
2022-10-02T22:56:42.674Z,100541.91
2022-10-02T22:59:18.074Z,100557.63
2022-10-02T23:02:05.861Z,100567.72
2022-10-02T23:04:49.124Z,100570.09
2022-10-02T23:07:29.582Z,100581.75
2022-10-02T23:10:11.736Z,100560.59
2022-10-02T23:12:49.556Z,100564.25
2022-10-02T23:15:25.157Z,100596.09
2022-10-02T23:18:02.542Z,100591.50
2022-10-02T23:20:36.424Z,100577.31
2022-10-02T23:23:17.145Z,100580.63
2022-10-02T23:25:56.454Z,100567.59
2022-10-02T23:28:42.079Z,100579.88
2022-10-02T23:31:14.578Z,100585.28
2022-10-02T23:34:01.405Z,100590.78
2022-10-02T23:36:51.690Z,100585.94
2022-10-02T23:39:43.353Z,100598.25
2022-10-02T23:42:14.952Z,100609.41
2022-10-02T23:44:49.675Z,100617.94
2022-10-02T23:47:45.131Z,100611.28
2022-10-02T23:50:23.959Z,100603.22
2022-10-02T23:53:11.403Z,100585.63
2022-10-02T23:56:11.493Z,100615.28
2022-10-02T23:59:14.252Z,100612.53
